createdAt,value
2023-01-02T00:00:33.347Z,12.97
2023-01-02T00:03:00.762Z,12.98
2023-01-02T00:05:28.439Z,13.02
2023-01-02T00:07:55.971Z,13.12
2023-01-02T00:10:23.309Z,13.04
2023-01-02T00:12:50.631Z,12.97
2023-01-02T00:15:19.390Z,12.69
2023-01-02T00:17:46.730Z,12.80
2023-01-02T00:20:14.246Z,12.59
2023-01-02T00:22:41.595Z,12.53
2023-01-02T00:25:10.442Z,12.38
2023-01-02T00:27:37.809Z,12.54
2023-01-02T00:30:06.103Z,12.69
2023-01-02T00:32:34.844Z,12.73
2023-01-02T00:35:02.322Z,12.54
2023-01-02T00:37:29.657Z,12.66
2023-01-02T00:39:56.992Z,12.51
2023-01-02T00:42:24.346Z,12.54
2023-01-02T00:44:51.684Z,12.50
2023-01-02T00:47:19.029Z,12.39
2023-01-02T00:49:47.670Z,12.47
2023-01-02T00:52:15.011Z,12.46
2023-01-02T00:54:42.346Z,12.46
2023-01-02T00:57:09.685Z,12.33
2023-01-02T00:59:38.479Z,12.41
2023-01-02T01:02:06.020Z,12.40
2023-01-02T01:04:33.787Z,12.25
2023-01-02T01:07:02.630Z,12.27
2023-01-02T01:09:30.055Z,12.30
2023-01-02T01:11:57.437Z,12.15
2023-01-02T01:14:24.936Z,12.15
2023-01-02T01:16:52.287Z,12.04
2023-01-02T01:19:19.625Z,12.00
2023-01-02T01:21:46.957Z,12.06
2023-01-02T01:24:16.250Z,11.99
2023-01-02T01:26:43.595Z,12.08
2023-01-02T01:29:10.962Z,12.08
2023-01-02T01:31:38.379Z,12.05
2023-01-02T01:34:05.767Z,12.02
2023-01-02T01:36:33.136Z,11.98
2023-01-02T01:39:00.473Z,12.03
2023-01-02T01:41:29.194Z,12.02
2023-01-02T01:43:58.096Z,12.06
2023-01-02T01:46:28.259Z,12.04
2023-01-02T01:48:59.961Z,12.11
2023-01-02T01:51:28.532Z,12.16
2023-01-02T01:54:01.459Z,12.16
2023-01-02T01:56:30.150Z,12.14
2023-01-02T01:58:57.535Z,12.19
2023-01-02T02:01:25.088Z,12.23
2023-01-02T02:03:52.577Z,12.21
2023-01-02T02:06:20.337Z,12.16
2023-01-02T02:08:53.049Z,12.22
2023-01-02T02:11:20.937Z,12.30
2023-01-02T02:13:50.148Z,12.24
2023-01-02T02:16:26.404Z,12.24
2023-01-02T02:19:05.089Z,12.23
2023-01-02T02:21:48.282Z,12.28
2023-01-02T02:24:48.918Z,12.32
2023-01-02T02:27:31.387Z,12.17
2023-01-02T02:30:17.863Z,12.28
2023-01-02T02:33:08.221Z,12.35
2023-01-02T02:35:48.562Z,12.26
2023-01-02T02:38:22.546Z,12.30
2023-01-02T02:40:57.523Z,12.19
2023-01-02T02:43:30.474Z,12.37
2023-01-02T02:46:04.367Z,12.29
2023-01-02T02:48:46.395Z,12.24
2023-01-02T02:51:16.931Z,12.24
2023-01-02T02:53:45.509Z,12.25
2023-01-02T02:56:14.714Z,12.24
2023-01-02T02:58:43.214Z,12.28
2023-01-02T03:01:15.697Z,12.29
2023-01-02T03:03:43.752Z,12.28
2023-01-02T03:06:22.305Z,12.29
2023-01-02T03:08:57.047Z,12.24
2023-01-02T03:11:28.893Z,12.27
2023-01-02T03:14:04.658Z,12.24
2023-01-02T03:16:38.831Z,12.30
2023-01-02T03:19:08.418Z,12.30
2023-01-02T03:21:37.235Z,12.33
2023-01-02T03:24:07.593Z,12.42
2023-01-02T03:26:35.926Z,12.34
2023-01-02T03:29:05.262Z,12.33
2023-01-02T03:31:35.729Z,12.29
2023-01-02T03:34:07.734Z,12.27
2023-01-02T03:36:35.709Z,12.22
2023-01-02T03:39:06.879Z,12.38
2023-01-02T03:41:37.572Z,12.39
2023-01-02T03:44:07.085Z,12.41
2023-01-02T03:46:39.402Z,12.47
2023-01-02T03:49:08.152Z,12.39
2023-01-02T03:51:35.844Z,12.50
2023-01-02T03:54:03.954Z,12.57
2023-01-02T03:56:38.910Z,12.53
2023-01-02T03:59:09.303Z,12.55
2023-01-02T04:01:41.979Z,12.48
2023-01-02T04:04:12.827Z,12.65
2023-01-02T04:06:42.806Z,12.57
2023-01-02T04:09:11.650Z,12.52
2023-01-02T04:11:41.664Z,12.50
2023-01-02T04:14:13.186Z,12.53
2023-01-02T04:16:42.388Z,12.55
2023-01-02T04:19:14.125Z,12.51
2023-01-02T04:21:42.527Z,12.48
2023-01-02T04:24:13.895Z,12.59
2023-01-02T04:26:43.804Z,12.58
2023-01-02T04:29:11.182Z,12.46
2023-01-02T04:31:45.183Z,12.47
2023-01-02T04:34:14.662Z,12.49
2023-01-02T04:36:42.510Z,12.61
2023-01-02T04:39:10.270Z,12.58
2023-01-02T04:41:38.669Z,12.49
2023-01-02T04:44:06.417Z,12.42
2023-01-02T04:46:34.093Z,12.42
2023-01-02T04:49:02.810Z,12.48
2023-01-02T04:51:30.146Z,12.45
2023-01-02T04:53:57.473Z,12.43
2023-01-02T04:56:24.826Z,12.43
2023-01-02T04:58:52.792Z,12.51
2023-01-02T05:01:21.955Z,12.48
2023-01-02T05:03:51.242Z,12.55
2023-01-02T05:06:20.029Z,12.47
2023-01-02T05:08:47.390Z,12.54
2023-01-02T05:11:16.449Z,12.55
2023-01-02T05:13:43.846Z,12.60
2023-01-02T05:16:11.955Z,12.61
2023-01-02T05:18:39.364Z,12.64
2023-01-02T05:21:29.571Z,12.69
2023-01-02T05:23:58.583Z,12.78
2023-01-02T05:26:26.167Z,12.78
2023-01-02T05:28:53.912Z,12.86
2023-01-02T05:31:21.653Z,12.87
2023-01-02T05:33:51.783Z,12.86
2023-01-02T05:36:19.148Z,12.95
2023-01-02T05:38:46.521Z,12.93
2023-01-02T05:41:15.277Z,12.82
2023-01-02T05:43:42.769Z,12.92
2023-01-02T05:46:11.236Z,12.91
2023-01-02T05:48:38.946Z,12.91
2023-01-02T05:51:07.547Z,12.92
2023-01-02T05:53:35.318Z,12.94
2023-01-02T05:56:07.131Z,12.82
2023-01-02T05:58:36.625Z,12.78
2023-01-02T06:01:05.607Z,12.84
2023-01-02T06:03:32.985Z,12.82
2023-01-02T06:06:04.436Z,12.84
2023-01-02T06:08:31.919Z,12.79
2023-01-02T06:10:59.307Z,12.79
2023-01-02T06:13:26.858Z,12.75
2023-01-02T06:15:56.614Z,12.72
2023-01-02T06:18:24.417Z,12.75
2023-01-02T06:20:51.970Z,12.75
2023-01-02T06:23:19.850Z,12.76
2023-01-02T06:25:47.171Z,12.78
2023-01-02T06:28:14.601Z,12.78
2023-01-02T06:30:41.950Z,12.78
2023-01-02T06:33:10.637Z,12.84
2023-01-02T06:35:38.114Z,12.80
2023-01-02T06:38:05.497Z,12.75
2023-01-02T06:40:32.849Z,12.80
2023-01-02T06:43:00.560Z,12.77
2023-01-02T06:45:28.067Z,12.76
2023-01-02T06:47:58.382Z,12.78
2023-01-02T06:50:32.968Z,12.84
2023-01-02T06:53:02.360Z,12.82
2023-01-02T06:55:29.721Z,12.85
2023-01-02T06:57:57.062Z,12.84
2023-01-02T07:00:24.440Z,12.78
2023-01-02T07:02:51.960Z,12.79
2023-01-02T07:05:24.459Z,12.83
2023-01-02T07:07:53.543Z,12.82
2023-01-02T07:10:20.925Z,12.73
2023-01-02T07:12:48.371Z,12.69
2023-01-02T07:15:16.035Z,12.74
2023-01-02T07:17:43.394Z,12.75
2023-01-02T07:20:11.580Z,12.77
2023-01-02T07:22:38.990Z,12.84
2023-01-02T07:25:08.983Z,12.76
2023-01-02T07:27:36.370Z,12.84
2023-01-02T07:30:03.886Z,12.88
2023-01-02T07:32:31.328Z,12.93
2023-01-02T07:34:59.026Z,12.85
2023-01-02T07:37:26.715Z,12.86
2023-01-02T07:39:54.113Z,12.86
2023-01-02T07:42:22.858Z,12.89
2023-01-02T07:44:50.260Z,12.94
2023-01-02T07:47:17.592Z,13.03
2023-01-02T07:49:45.143Z,12.99
2023-01-02T07:52:12.748Z,13.01
2023-01-02T07:54:40.093Z,13.03
2023-01-02T07:57:07.506Z,13.10
2023-01-02T07:59:36.238Z,13.08
2023-01-02T08:02:03.657Z,13.17
2023-01-02T08:04:31.162Z,13.08
2023-01-02T08:06:58.551Z,13.08
2023-01-02T08:09:27.021Z,13.18
2023-01-02T08:11:54.388Z,13.18
2023-01-02T08:14:23.607Z,13.11
2023-01-02T08:16:52.583Z,13.09
2023-01-02T08:19:19.970Z,13.12
2023-01-02T08:21:47.586Z,13.18
2023-01-02T08:24:15.005Z,13.15
2023-01-02T08:26:42.373Z,13.19
2023-01-02T08:29:09.779Z,13.22
2023-01-02T08:31:43.397Z,13.26
2023-01-02T08:34:14.438Z,13.25
2023-01-02T08:36:41.952Z,13.20
2023-01-02T08:39:09.345Z,13.26
2023-01-02T08:41:37.853Z,13.29
2023-01-02T08:44:05.406Z,13.21
2023-01-02T08:46:38.528Z,13.22
2023-01-02T08:49:09.921Z,13.29
2023-01-02T08:51:38.671Z,13.27
2023-01-02T08:54:06.181Z,13.23
2023-01-02T08:56:33.911Z,13.28
2023-01-02T08:59:05.508Z,13.30
2023-01-02T09:01:33.839Z,13.30
2023-01-02T09:04:12.095Z,13.37
2023-01-02T09:06:43.096Z,13.31
2023-01-02T09:09:12.909Z,13.40
2023-01-02T09:11:46.946Z,13.36
2023-01-02T09:14:14.375Z,13.34
2023-01-02T09:16:41.819Z,13.40
2023-01-02T09:19:09.258Z,13.43
2023-01-02T09:21:36.627Z,13.37
2023-01-02T09:24:05.877Z,13.39
2023-01-02T09:26:33.245Z,13.35
2023-01-02T09:29:00.636Z,13.45
2023-01-02T09:31:28.092Z,13.42
2023-01-02T09:33:55.547Z,13.42
2023-01-02T09:36:23.448Z,13.49
2023-01-02T09:38:54.247Z,13.43
2023-01-02T09:41:28.867Z,13.46
2023-01-02T09:43:59.482Z,13.49
2023-01-02T09:46:31.798Z,13.45
2023-01-02T09:49:00.002Z,13.51
2023-01-02T09:51:27.433Z,13.54
2023-01-02T09:53:54.822Z,13.56
2023-01-02T09:56:33.483Z,13.61
2023-01-02T09:59:06.596Z,13.67
2023-01-02T10:01:40.996Z,13.62
2023-01-02T10:04:17.849Z,13.69
2023-01-02T10:06:48.899Z,13.67
2023-01-02T10:09:21.548Z,13.74
2023-01-02T10:11:56.361Z,13.78
2023-01-02T10:14:37.442Z,13.83
2023-01-02T10:17:11.635Z,13.83
2023-01-02T10:19:42.963Z,13.94
2023-01-02T10:22:15.151Z,13.90
2023-01-02T10:24:45.836Z,13.90
2023-01-02T10:27:18.943Z,13.93
2023-01-02T10:29:52.000Z,13.95
2023-01-02T10:32:20.493Z,13.98
2023-01-02T10:34:56.686Z,13.99
2023-01-02T10:37:24.051Z,13.99
2023-01-02T10:39:51.541Z,14.00
2023-01-02T10:42:20.337Z,14.00
2023-01-02T10:44:48.107Z,13.95
2023-01-02T10:47:20.304Z,14.00
2023-01-02T10:49:48.881Z,14.02
2023-01-02T10:52:20.844Z,13.99
2023-01-02T10:54:56.775Z,14.09
2023-01-02T10:57:37.402Z,14.05
2023-01-02T11:00:07.487Z,14.03
2023-01-02T11:02:38.985Z,14.01
2023-01-02T11:05:08.553Z,13.99
2023-01-02T11:07:39.749Z,14.06
2023-01-02T11:10:23.048Z,14.04
2023-01-02T11:12:51.747Z,14.00
2023-01-02T11:15:25.895Z,14.01
2023-01-02T11:17:53.690Z,13.94
2023-01-02T11:20:27.813Z,13.98
2023-01-02T11:22:57.037Z,13.93
2023-01-02T11:25:26.431Z,13.98
2023-01-02T11:27:58.408Z,13.83
2023-01-02T11:30:37.488Z,13.84
2023-01-02T11:33:13.223Z,13.77
2023-01-02T11:35:44.689Z,13.82
2023-01-02T11:38:20.311Z,13.85
2023-01-02T11:41:02.634Z,13.97
2023-01-02T11:43:51.930Z,13.93
2023-01-02T11:46:31.130Z,13.86
2023-01-02T11:49:05.354Z,13.91
2023-01-02T11:51:34.505Z,13.93
2023-01-02T11:54:04.883Z,13.83
2023-01-02T11:56:35.809Z,13.84
2023-01-02T11:59:07.384Z,13.86
2023-01-02T12:01:47.439Z,13.88
2023-01-02T12:04:15.579Z,13.89
2023-01-02T12:06:55.352Z,13.83
2023-01-02T12:09:27.878Z,13.84
2023-01-02T12:12:09.909Z,13.79
2023-01-02T12:14:54.563Z,13.81
2023-01-02T12:17:28.706Z,13.69
2023-01-02T12:20:10.123Z,13.87
2023-01-02T12:23:10.989Z,13.77
2023-01-02T12:25:54.656Z,13.81
2023-01-02T12:28:50.887Z,13.68
2023-01-02T12:31:40.125Z,13.57
2023-01-02T12:34:19.606Z,13.37
2023-01-02T12:36:58.385Z,13.34
2023-01-02T12:39:52.067Z,13.55
2023-01-02T12:42:30.190Z,13.38
2023-01-02T12:44:59.733Z,13.57
2023-01-02T12:47:44.744Z,13.47
2023-01-02T12:50:34.243Z,13.60
2023-01-02T12:53:11.677Z,13.49
2023-01-02T12:55:47.317Z,13.53
2023-01-02T12:58:24.667Z,13.50
2023-01-02T13:01:03.489Z,13.37
2023-01-02T13:03:46.694Z,13.17
2023-01-02T13:06:46.046Z,13.06
2023-01-02T13:09:07.872Z,13.31
2023-01-02T13:11:38.598Z,12.96
2023-01-02T13:14:07.337Z,13.08
2023-01-02T13:16:36.840Z,13.06
2023-01-02T13:19:16.818Z,13.03
2023-01-02T13:21:47.986Z,12.91
2023-01-02T13:24:20.053Z,12.96
2023-01-02T13:26:47.662Z,12.96
2023-01-02T13:29:25.767Z,12.71
2023-01-02T13:31:54.961Z,12.76
2023-01-02T13:34:26.410Z,13.00
2023-01-02T13:37:03.443Z,12.82
2023-01-02T13:39:33.449Z,12.58
2023-01-02T13:42:20.907Z,12.80
2023-01-02T13:44:50.435Z,12.79
2023-01-02T13:47:25.620Z,12.60
2023-01-02T13:50:01.687Z,12.70
2023-01-02T13:52:29.110Z,12.83
2023-01-02T13:55:31.904Z,12.75
2023-01-02T13:58:37.581Z,12.71
2023-01-02T14:01:27.786Z,12.81
2023-01-02T14:04:28.465Z,12.67
2023-01-02T14:07:37.864Z,12.81
2023-01-02T14:10:43.277Z,12.52
2023-01-02T14:13:17.419Z,12.77
2023-01-02T14:16:12.674Z,12.67
2023-01-02T14:18:46.146Z,12.54
2023-01-02T14:21:14.760Z,12.45
2023-01-02T14:24:16.320Z,12.37
2023-01-02T14:26:34.960Z,12.51
2023-01-02T14:29:09.045Z,12.76
2023-01-02T14:31:36.638Z,12.44
2023-01-02T14:34:04.402Z,12.47
2023-01-02T14:36:37.880Z,12.60
2023-01-02T14:39:06.741Z,12.55
2023-01-02T14:42:29.418Z,12.57
2023-01-02T14:45:00.780Z,12.58
2023-01-02T14:47:35.656Z,12.57
2023-01-02T14:50:04.856Z,12.68
2023-01-02T14:52:34.869Z,12.62
2023-01-02T14:55:06.941Z,12.54
2023-01-02T14:57:35.883Z,12.61
2023-01-02T15:00:11.638Z,12.26
2023-01-02T15:02:41.395Z,12.40
2023-01-02T15:05:11.235Z,12.63
2023-01-02T15:07:41.222Z,12.34
2023-01-02T15:10:13.452Z,12.33
2023-01-02T15:13:02.510Z,12.49
2023-01-02T15:15:31.506Z,12.45
2023-01-02T15:18:02.548Z,12.20
2023-01-02T15:20:30.972Z,12.13
2023-01-02T15:22:59.336Z,12.32
2023-01-02T15:25:33.623Z,12.33
2023-01-02T15:28:01.020Z,12.26
2023-01-02T15:30:29.970Z,12.37
2023-01-02T15:32:57.401Z,12.37
2023-01-02T15:35:26.343Z,12.36
2023-01-02T15:37:53.757Z,12.44
2023-01-02T15:40:25.496Z,12.39
2023-01-02T15:43:12.747Z,12.39
2023-01-02T15:45:43.236Z,12.29
2023-01-02T15:48:11.101Z,12.34
2023-01-02T15:50:39.052Z,12.37
2023-01-02T15:53:08.697Z,12.43
2023-01-02T15:55:37.932Z,12.66
2023-01-02T15:58:24.684Z,12.24
2023-01-02T16:01:10.333Z,12.41
2023-01-02T16:04:01.967Z,12.36
2023-01-02T16:06:29.433Z,12.28
2023-01-02T16:08:58.581Z,12.27
2023-01-02T16:11:26.531Z,12.39
2023-01-02T16:14:16.279Z,12.35
2023-01-02T16:16:47.941Z,12.31
2023-01-02T16:19:20.438Z,12.26
2023-01-02T16:21:48.639Z,12.37
2023-01-02T16:24:19.126Z,12.19
2023-01-02T16:26:47.161Z,12.01
2023-01-02T16:29:18.185Z,12.22
2023-01-02T16:31:54.478Z,12.38
2023-01-02T16:34:35.377Z,11.91
2023-01-02T16:37:36.138Z,12.01
2023-01-02T16:41:01.807Z,11.93
2023-01-02T16:43:31.096Z,11.99
2023-01-02T16:46:00.093Z,11.89
2023-01-02T16:48:29.724Z,11.93
2023-01-02T16:50:58.539Z,12.10
2023-01-02T16:53:28.717Z,12.10
2023-01-02T16:55:56.227Z,11.85
2023-01-02T16:58:25.186Z,11.84
2023-01-02T17:00:53.199Z,12.01
2023-01-02T17:03:24.230Z,12.20
2023-01-02T17:06:00.921Z,12.03
2023-01-02T17:08:29.970Z,12.05
2023-01-02T17:10:58.515Z,12.03
2023-01-02T17:13:25.930Z,11.87
2023-01-02T17:15:53.234Z,11.98
2023-01-02T17:18:22.339Z,11.95
2023-01-02T17:20:50.047Z,11.67
2023-01-02T17:23:18.750Z,11.87
2023-01-02T17:25:46.473Z,11.92
2023-01-02T17:28:14.198Z,11.99
2023-01-02T17:30:42.922Z,11.89
2023-01-02T17:33:10.329Z,12.04
2023-01-02T17:35:39.022Z,12.08
2023-01-02T17:38:06.372Z,12.17
2023-01-02T17:40:33.997Z,11.80
2023-01-02T17:43:01.338Z,11.90
2023-01-02T17:45:28.734Z,12.01
2023-01-02T17:48:04.076Z,11.99
2023-01-02T17:50:39.000Z,11.93
2023-01-02T17:53:06.324Z,11.77
2023-01-02T17:55:33.689Z,11.81
2023-01-02T17:58:03.537Z,11.91
2023-01-02T18:00:30.893Z,11.98
2023-01-02T18:02:58.284Z,12.05
2023-01-02T18:05:25.644Z,12.02
2023-01-02T18:07:54.279Z,12.14
2023-01-02T18:10:23.719Z,12.01
2023-01-02T18:12:53.426Z,11.97
2023-01-02T18:15:22.356Z,11.99
2023-01-02T18:17:50.110Z,12.07
2023-01-02T18:20:19.557Z,12.09
2023-01-02T18:22:49.989Z,11.96
2023-01-02T18:25:21.340Z,11.95
2023-01-02T18:27:49.407Z,11.96
2023-01-02T18:30:20.813Z,11.98
2023-01-02T18:32:48.807Z,11.99
2023-01-02T18:35:55.481Z,12.01
2023-01-02T18:38:16.702Z,11.94
2023-01-02T18:40:45.853Z,11.82
2023-01-02T18:43:21.084Z,12.09
2023-01-02T18:45:50.776Z,11.85
2023-01-02T18:48:19.770Z,11.94
2023-01-02T18:50:56.463Z,11.91
2023-01-02T18:53:26.372Z,11.86
2023-01-02T18:55:59.662Z,11.80
2023-01-02T18:58:40.726Z,11.79
2023-01-02T19:01:27.465Z,11.86
2023-01-02T19:04:01.318Z,11.76
2023-01-02T19:06:29.015Z,11.69
2023-01-02T19:09:02.834Z,11.73
2023-01-02T19:11:51.450Z,11.78
2023-01-02T19:14:20.171Z,11.80
2023-01-02T19:16:47.643Z,11.74
2023-01-02T19:19:17.451Z,11.69
2023-01-02T19:21:45.109Z,11.69
2023-01-02T19:24:18.695Z,11.66
2023-01-02T19:26:48.668Z,11.61
2023-01-02T19:29:19.724Z,11.74
2023-01-02T19:31:51.356Z,11.62
2023-01-02T19:34:28.091Z,11.55
2023-01-02T19:37:16.043Z,11.82
2023-01-02T19:39:48.361Z,11.58
2023-01-02T19:42:23.514Z,11.39
2023-01-02T19:44:52.743Z,11.45
2023-01-02T19:47:21.137Z,11.51
2023-01-02T19:49:48.994Z,11.52
2023-01-02T19:52:16.417Z,11.38
2023-01-02T19:54:44.452Z,11.66
2023-01-02T19:57:12.996Z,11.55
2023-01-02T19:59:45.307Z,11.39
2023-01-02T20:02:13.734Z,11.33
2023-01-02T20:04:41.585Z,11.54
2023-01-02T20:07:09.105Z,11.34
2023-01-02T20:09:36.867Z,11.35
2023-01-02T20:12:22.427Z,11.39
2023-01-02T20:14:52.079Z,11.28
2023-01-02T20:17:20.073Z,11.23
2023-01-02T20:19:47.498Z,11.26
2023-01-02T20:22:15.069Z,11.31
2023-01-02T20:24:42.401Z,11.22
2023-01-02T20:27:09.729Z,11.33
2023-01-02T20:29:37.126Z,11.11
2023-01-02T20:32:06.157Z,11.21
2023-01-02T20:34:33.488Z,11.01
2023-01-02T20:37:00.874Z,10.98
2023-01-02T20:39:28.400Z,11.10
2023-01-02T20:41:55.721Z,10.98
2023-01-02T20:44:23.293Z,11.16
2023-01-02T20:46:50.637Z,11.07
2023-01-02T20:49:19.553Z,11.01
2023-01-02T20:51:46.877Z,10.68
2023-01-02T20:54:14.237Z,11.01
2023-01-02T20:56:41.586Z,11.02
2023-01-02T20:59:09.051Z,10.80
2023-01-02T21:01:36.571Z,10.73
2023-01-02T21:04:04.125Z,10.75
2023-01-02T21:06:32.899Z,10.87
2023-01-02T21:09:03.037Z,10.99
2023-01-02T21:11:30.980Z,10.79
2023-01-02T21:13:58.793Z,10.97
2023-01-02T21:16:26.226Z,10.82
2023-01-02T21:18:53.609Z,10.90
2023-01-02T21:21:22.357Z,10.76
2023-01-02T21:23:51.215Z,10.73
2023-01-02T21:26:21.618Z,10.77
2023-01-02T21:28:49.971Z,10.97
2023-01-02T21:31:18.900Z,11.00
2023-01-02T21:33:46.592Z,10.75
2023-01-02T21:36:15.455Z,10.96
2023-01-02T21:38:43.492Z,10.69
2023-01-02T21:41:35.134Z,10.89
2023-01-02T21:44:04.427Z,10.65
2023-01-02T21:46:31.835Z,10.79
2023-01-02T21:48:59.214Z,10.63
2023-01-02T21:51:32.253Z,10.66
2023-01-02T21:54:00.280Z,10.62
2023-01-02T21:56:28.937Z,10.64
2023-01-02T21:58:57.492Z,10.62
2023-01-02T22:01:24.999Z,10.56
2023-01-02T22:03:53.713Z,10.55
2023-01-02T22:06:21.290Z,10.52
2023-01-02T22:08:48.697Z,10.34
2023-01-02T22:11:33.348Z,10.45
2023-01-02T22:14:04.014Z,10.51
2023-01-02T22:16:31.554Z,10.25
2023-01-02T22:18:58.987Z,10.53
2023-01-02T22:21:26.297Z,10.51
2023-01-02T22:23:53.662Z,10.22
2023-01-02T22:26:21.000Z,10.42
2023-01-02T22:28:48.358Z,10.25
2023-01-02T22:31:17.104Z,10.28
2023-01-02T22:33:44.645Z,10.33
2023-01-02T22:36:12.029Z,10.40
2023-01-02T22:38:49.312Z,10.28
2023-01-02T22:41:29.548Z,10.13
2023-01-02T22:43:56.974Z,10.33
2023-01-02T22:46:31.331Z,10.20
2023-01-02T22:48:59.297Z,10.34
2023-01-02T22:51:57.740Z,10.32
2023-01-02T22:54:15.871Z,10.20
2023-01-02T22:56:43.473Z,10.27
2023-01-02T22:59:11.231Z,10.31
2023-01-02T23:01:41.188Z,10.14
2023-01-02T23:04:15.070Z,10.16
2023-01-02T23:07:05.640Z,9.88
2023-01-02T23:09:29.805Z,9.77
2023-01-02T23:11:57.186Z,10.06
2023-01-02T23:14:24.560Z,9.95
2023-01-02T23:17:12.694Z,9.97
2023-01-02T23:19:40.064Z,10.17
2023-01-02T23:22:07.435Z,10.00
2023-01-02T23:24:36.870Z,10.13
2023-01-02T23:27:05.823Z,10.05
2023-01-02T23:29:33.297Z,10.03
2023-01-02T23:32:04.127Z,9.88
2023-01-02T23:34:31.801Z,10.02
2023-01-02T23:37:00.139Z,9.97
2023-01-02T23:39:30.870Z,10.01
2023-01-02T23:41:58.741Z,10.26
2023-01-02T23:44:26.669Z,9.94
2023-01-02T23:46:54.362Z,9.88
2023-01-02T23:49:24.236Z,10.11
2023-01-02T23:51:51.656Z,9.97
2023-01-02T23:54:19.747Z,10.07
2023-01-02T23:56:49.245Z,9.77
2023-01-02T23:59:18.565Z,9.69
